Time;durP1;ratioP1;P1;durP2;ratioP2;P2;SDS_P1;SDS_P2;PMS_P1;PMS_P2;Temp;Humidity;BMP_temperature;BMP_pressure;BME280_temperature;BME280_humidity;BME280_pressure;Samples;Min_cycle;Max_cycle;Signal;HPM_P1;HPM_P2
2023/05/14 00:08:47;;;;;;;;;;;16.30;38.50;;;;;;21094397;28;20284;-55
2023/05/14 00:18:47;;;;;;;;;;;16.20;39.20;;;;;;21092053;28;19981;-56
2023/05/14 00:28:48;;;;;;;;;;;16.20;39.20;;;;;;21092622;28;19974;-56
2023/05/14 00:38:49;;;;;;;;;;;16.00;39.90;;;;;;21090569;28;20001;-57
2023/05/14 00:48:49;;;;;;;;;;;15.90;40.10;;;;;;21090804;28;20365;-58
2023/05/14 00:58:50;;;;;;;;;;;15.70;40.40;;;;;;21090326;28;20294;-53
2023/05/14 01:08:57;;;;;;;;;;;15.70;40.70;;;;;;21088778;28;19924;-56
2023/05/14 01:18:58;;;;;;;;;;;15.70;41.00;;;;;;21087334;28;20038;-55
2023/05/14 01:29:05;;;;;;;;;;;15.60;41.20;;;;;;21087531;28;19946;-54
2023/05/14 01:39:08;;;;;;;;;;;15.50;41.40;;;;;;21086956;28;19963;-55
2023/05/14 01:49:09;;;;;;;;;;;15.40;41.70;;;;;;21087115;28;19928;-55
2023/05/14 01:59:09;;;;;;;;;;;15.30;42.10;;;;;;21085044;28;19969;-55
2023/05/14 02:09:10;;;;;;;;;;;15.20;42.30;;;;;;21085280;28;19928;-54
2023/05/14 02:19:11;;;;;;;;;;;15.20;42.50;;;;;;21083151;28;19967;-54
2023/05/14 02:29:11;;;;;;;;;;;15.20;42.60;;;;;;21083735;28;19971;-55
2023/05/14 02:39:12;;;;;;;;;;;15.10;42.80;;;;;;21082144;28;19932;-54
2023/05/14 02:49:13;;;;;;;;;;;15.10;43.10;;;;;;21080835;28;19924;-55
2023/05/14 02:59:13;;;;;;;;;;;15.10;43.30;;;;;;21080200;28;20281;-55
2023/05/14 03:09:14;;;;;;;;;;;15.10;43.30;;;;;;21080822;28;20405;-54
2023/05/14 03:19:14;;;;;;;;;;;14.90;43.70;;;;;;21081063;28;19960;-55
2023/05/14 03:29:16;;;;;;;;;;;14.90;43.90;;;;;;21080201;28;19963;-55
2023/05/14 03:39:20;;;;;;;;;;;14.90;44.00;;;;;;21105824;28;20433;-54
2023/05/14 03:49:21;;;;;;;;;;;14.80;44.10;;;;;;21107505;28;19935;-54
2023/05/14 03:59:21;;;;;;;;;;;14.80;44.20;;;;;;21107381;28;20285;-55
2023/05/14 04:09:22;;;;;;;;;;;14.70;44.40;;;;;;21106706;28;19931;-55
2023/05/14 04:19:22;;;;;;;;;;;14.70;44.60;;;;;;21105742;28;20007;-55
2023/05/14 04:29:23;;;;;;;;;;;14.60;44.90;;;;;;21104410;28;19967;-54
2023/05/14 04:39:24;;;;;;;;;;;14.40;45.30;;;;;;21104922;28;19924;-54
2023/05/14 04:49:24;;;;;;;;;;;13.90;45.80;;;;;;21093777;28;20393;-55
2023/05/14 04:59:25;;;;;;;;;;;13.60;46.70;;;;;;21090032;28;19924;-54
2023/05/14 05:09:25;;;;;;;;;;;13.20;47.60;;;;;;21090157;28;20006;-55
2023/05/14 05:19:26;;;;;;;;;;;13.10;48.30;;;;;;21088370;28;20365;-55
2023/05/14 05:29:27;;;;;;;;;;;13.20;48.20;;;;;;21088783;28;19945;-55
2023/05/14 05:39:33;;;;;;;;;;;13.00;48.70;;;;;;21088245;28;19925;-54
2023/05/14 05:49:35;;;;;;;;;;;13.00;48.80;;;;;;21084734;28;19932;-56
2023/05/14 05:59:36;;;;;;;;;;;13.20;48.50;;;;;;21085081;28;19924;-55
2023/05/14 06:09:36;;;;;;;;;;;13.30;48.30;;;;;;21084107;28;19931;-55
2023/05/14 06:19:37;;;;;;;;;;;13.50;48.00;;;;;;21083846;28;20008;-55
2023/05/14 06:29:38;;;;;;;;;;;13.70;47.80;;;;;;21083297;28;19924;-55
2023/05/14 06:39:42;;;;;;;;;;;13.70;47.80;;;;;;21082136;28;19930;-55
2023/05/14 06:49:43;;;;;;;;;;;14.20;47.10;;;;;;21081647;28;19947;-56
2023/05/14 06:59:44;;;;;;;;;;;15.20;45.20;;;;;;21081217;28;19925;-54
2023/05/14 07:09:45;;;;;;;;;;;15.90;43.00;;;;;;21080800;28;19925;-54
2023/05/14 07:19:46;;;;;;;;;;;16.50;41.20;;;;;;21080500;28;19924;-55
2023/05/14 07:29:46;;;;;;;;;;;17.20;40.40;;;;;;21080296;28;19924;-55
2023/05/14 07:39:47;;;;;;;;;;;17.60;39.70;;;;;;21079545;28;20062;-55
2023/05/14 07:49:48;;;;;;;;;;;18.30;37.90;;;;;;21078364;28;20009;-54
2023/05/14 07:59:48;;;;;;;;;;;18.40;37.70;;;;;;21079418;28;19924;-57
2023/05/14 08:09:49;;;;;;;;;;;18.30;38.50;;;;;;21072747;28;19964;-55
2023/05/14 08:19:50;;;;;;;;;;;18.60;38.00;;;;;;21073780;28;19931;-58
2023/05/14 08:29:50;;;;;;;;;;;18.60;38.20;;;;;;21093609;28;19928;-57
2023/05/14 08:39:51;;;;;;;;;;;18.70;37.80;;;;;;21092720;28;19923;-56
2023/05/14 08:49:56;;;;;;;;;;;18.60;38.00;;;;;;21089997;28;19924;-56
2023/05/14 08:59:57;;;;;;;;;;;18.60;37.10;;;;;;21090699;28;19928;-57
2023/05/14 09:09:58;;;;;;;;;;;18.70;35.50;;;;;;21088468;28;19978;-56
2023/05/14 09:19:59;;;;;;;;;;;18.70;35.10;;;;;;21088789;28;20373;-56
2023/05/14 09:30:06;;;;;;;;;;;18.90;35.10;;;;;;21085897;28;20136;-56
2023/05/14 09:40:07;;;;;;;;;;;19.20;34.70;;;;;;21088365;28;20010;-57
2023/05/14 09:50:08;;;;;;;;;;;19.20;34.60;;;;;;21087185;28;19924;-56
2023/05/14 10:00:11;;;;;;;;;;;19.10;35.30;;;;;;21085302;28;20353;-56
2023/05/14 10:10:17;;;;;;;;;;;19.10;34.60;;;;;;21083622;28;19970;-56
2023/05/14 10:20:18;;;;;;;;;;;19.20;34.10;;;;;;21083097;28;20358;-56
2023/05/14 10:30:20;;;;;;;;;;;19.10;34.30;;;;;;21082911;28;20331;-56
2023/05/14 10:40:22;;;;;;;;;;;19.40;33.90;;;;;;21081428;28;19980;-56
2023/05/14 10:50:23;;;;;;;;;;;19.40;33.70;;;;;;21081952;28;19947;-55
2023/05/14 11:00:24;;;;;;;;;;;19.80;33.90;;;;;;21081713;28;19924;-56
2023/05/14 11:10:28;;;;;;;;;;;19.80;33.50;;;;;;21080110;28;19928;-56
2023/05/14 11:20:29;;;;;;;;;;;20.10;33.00;;;;;;21080294;28;19931;-55
2023/05/14 11:30:30;;;;;;;;;;;20.00;33.10;;;;;;21080336;28;20004;-57
2023/05/14 11:40:30;;;;;;;;;;;20.20;33.20;;;;;;21079813;28;19928;-55
2023/05/14 11:50:35;;;;;;;;;;;20.50;32.90;;;;;;21079584;28;20281;-56
2023/05/14 12:00:36;;;;;;;;;;;20.40;33.00;;;;;;21095475;28;19950;-56
2023/05/14 12:10:41;;;;;;;;;;;20.40;33.20;;;;;;21094702;28;19924;-55
2023/05/14 12:20:45;;;;;;;;;;;20.20;33.80;;;;;;21091784;28;19924;-56
2023/05/14 12:30:46;;;;;;;;;;;20.30;33.70;;;;;;21092558;28;19932;-55
2023/05/14 12:40:46;;;;;;;;;;;20.10;33.90;;;;;;21091165;28;19924;-55
2023/05/14 12:50:47;;;;;;;;;;;20.10;43.70;;;;;;21091495;28;19982;-56
2023/05/14 13:00:48;;;;;;;;;;;20.20;37.80;;;;;;21090579;28;19930;-58
2023/05/14 13:10:48;;;;;;;;;;;20.70;35.90;;;;;;21089478;28;19970;-57
2023/05/14 13:20:49;;;;;;;;;;;20.70;36.10;;;;;;21088213;28;19932;-57
2023/05/14 13:31:09;;;;;;;;;;;20.20;37.20;;;;;;21088353;28;19924;-57
2023/05/14 13:41:10;;;;;;;;;;;20.30;37.20;;;;;;21088767;28;19924;-58
2023/05/14 13:51:10;;;;;;;;;;;20.30;39.20;;;;;;21086259;28;19935;-58
2023/05/14 14:01:11;;;;;;;;;;;20.60;36.60;;;;;;21086855;28;20293;-56
2023/05/14 14:11:12;;;;;;;;;;;21.00;35.50;;;;;;21085591;28;20352;-58
2023/05/14 14:21:16;;;;;;;;;;;21.20;34.90;;;;;;21083431;28;19967;-57
2023/05/14 14:31:17;;;;;;;;;;;21.30;34.90;;;;;;21084279;28;20377;-56
2023/05/14 14:41:17;;;;;;;;;;;21.40;34.10;;;;;;21083690;28;20016;-57
2023/05/14 14:51:18;;;;;;;;;;;21.70;32.00;;;;;;21082985;28;19936;-58
2023/05/14 15:01:20;;;;;;;;;;;21.70;31.40;;;;;;21082393;28;19970;-57
2023/05/14 15:11:21;;;;;;;;;;;21.60;30.40;;;;;;21081439;28;19932;-58
2023/05/14 15:21:21;;;;;;;;;;;21.90;30.60;;;;;;21031960;28;19928;-57
2023/05/14 15:31:22;;;;;;;;;;;22.10;30.00;;;;;;20995090;28;20452;-56
2023/05/14 15:41:24;;;;;;;;;;;22.00;30.60;;;;;;20993984;28;20447;-56
2023/05/14 15:51:25;;;;;;;;;;;21.90;31.70;;;;;;21079406;28;19924;-58
2023/05/14 16:01:25;;;;;;;;;;;20.90;46.60;;;;;;21077888;28;19932;-56
2023/05/14 16:11:26;;;;;;;;;;;20.00;43.90;;;;;;21074652;28;19925;-58
2023/05/14 16:21:26;;;;;;;;;;;19.90;47.30;;;;;;21074038;28;20353;-59
2023/05/14 16:31:27;;;;;;;;;;;20.00;44.40;;;;;;21055949;28;19936;-58
2023/05/14 16:41:28;;;;;;;;;;;20.10;41.40;;;;;;21042312;28;19928;-63
2023/05/14 16:51:29;;;;;;;;;;;20.20;42.40;;;;;;21078072;28;20015;-58
2023/05/14 17:01:30;;;;;;;;;;;20.30;39.90;;;;;;21089716;28;20401;-59
2023/05/14 17:11:30;;;;;;;;;;;20.60;38.80;;;;;;21089893;28;19928;-56
2023/05/14 17:21:31;;;;;;;;;;;20.70;38.60;;;;;;21085964;28;19931;-58
2023/05/14 17:31:32;;;;;;;;;;;20.70;36.50;;;;;;21076484;28;19924;-57
2023/05/14 17:41:32;;;;;;;;;;;20.60;34.40;;;;;;21063441;28;19936;-58
2023/05/14 17:51:33;;;;;;;;;;;20.50;33.50;;;;;;21080931;28;19928;-58
2023/05/14 18:01:33;;;;;;;;;;;20.20;34.20;;;;;;21084796;28;19931;-59
2023/05/14 18:11:34;;;;;;;;;;;20.10;34.40;;;;;;21084829;28;19931;-57
2023/05/14 18:21:35;;;;;;;;;;;20.10;35.40;;;;;;21083581;28;20062;-58
2023/05/14 18:31:35;;;;;;;;;;;20.20;38.20;;;;;;21073468;28;19931;-58
2023/05/14 18:41:36;;;;;;;;;;;20.50;39.30;;;;;;21070670;28;20285;-57
2023/05/14 18:51:36;;;;;;;;;;;20.90;37.70;;;;;;21061403;28;19931;-58
2023/05/14 19:01:37;;;;;;;;;;;20.40;35.70;;;;;;21069581;28;19968;-55
2023/05/14 19:11:38;;;;;;;;;;;20.70;37.70;;;;;;21060758;28;20420;-58
2023/05/14 19:21:38;;;;;;;;;;;20.60;34.50;;;;;;21087639;28;20304;-57
2023/05/14 19:31:39;;;;;;;;;;;20.20;33.50;;;;;;21078175;28;19924;-59
2023/05/14 19:41:39;;;;;;;;;;;19.60;32.90;;;;;;21111248;28;19924;-58
2023/05/14 19:51:40;;;;;;;;;;;19.80;36.20;;;;;;21088903;28;19924;-54
2023/05/14 20:01:41;;;;;;;;;;;19.70;31.60;;;;;;21072675;28;19924;-54
2023/05/14 20:11:41;;;;;;;;;;;19.50;31.90;;;;;;21068619;28;20195;-55
2023/05/14 20:21:42;;;;;;;;;;;19.30;32.60;;;;;;21083674;28;19978;-55
2023/05/14 20:31:42;;;;;;;;;;;19.10;33.40;;;;;;21090632;28;19924;-55
2023/05/14 20:41:44;;;;;;;;;;;19.00;33.50;;;;;;21091036;28;19991;-55
2023/05/14 20:51:45;;;;;;;;;;;18.90;33.40;;;;;;21090104;28;19924;-55
2023/05/14 21:01:45;;;;;;;;;;;18.70;34.10;;;;;;21089119;28;19927;-54
2023/05/14 21:11:46;;;;;;;;;;;18.60;34.70;;;;;;21087662;28;19977;-55
2023/05/14 21:21:46;;;;;;;;;;;18.50;34.90;;;;;;21086771;28;19924;-55
2023/05/14 21:31:47;;;;;;;;;;;18.30;35.80;;;;;;21085178;28;19963;-54
2023/05/14 21:41:48;;;;;;;;;;;18.20;36.40;;;;;;21087335;28;19970;-56
2023/05/14 21:51:51;;;;;;;;;;;18.20;37.30;;;;;;21085969;28;19931;-54
2023/05/14 22:01:52;;;;;;;;;;;17.90;37.30;;;;;;21084852;28;19924;-54
2023/05/14 22:11:53;;;;;;;;;;;17.80;36.90;;;;;;21084384;28;19931;-54
2023/05/14 22:21:53;;;;;;;;;;;17.60;37.30;;;;;;21082129;28;19999;-54
2023/05/14 22:31:54;;;;;;;;;;;17.50;37.40;;;;;;21081087;28;20038;-56
2023/05/14 22:41:55;;;;;;;;;;;17.40;37.60;;;;;;21080080;28;19924;-54
2023/05/14 22:51:55;;;;;;;;;;;17.30;38.10;;;;;;21079036;28;19980;-54
2023/05/14 23:01:56;;;;;;;;;;;17.20;38.80;;;;;;21078438;28;20360;-54
2023/05/14 23:11:56;;;;;;;;;;;17.20;39.70;;;;;;21079228;28;20401;-54
2023/05/14 23:21:58;;;;;;;;;;;17.00;40.20;;;;;;21077641;28;19968;-54
2023/05/14 23:31:58;;;;;;;;;;;16.80;40.70;;;;;;21078218;28;19931;-54
2023/05/14 23:41:59;;;;;;;;;;;16.70;41.20;;;;;;21076420;28;20389;-54
2023/05/14 23:52:00;;;;;;;;;;;16.40;41.70;;;;;;21085350;28;19977;-55
